| time (UTC) | temp F | wind direction | speed knots | gust knots | rain 1hr in | rain 24hr in | rain mn in | humidity % | barometer mb |
| 20260505224502 | 67 | 202 | 8.7 | 9.6 | 0.00 | 0.11 | 0.11 | 33 | 1018.6 |
| 20260505224003 | 66 | 250 | 5.2 | 15.6 | 0.00 | 0.11 | 0.11 | 34 | 1018.7 |
| 20260505223502 | 65 | 198 | 3.5 | 15.6 | 0.00 | 0.11 | 0.11 | 34 | 1019.0 |
| 20260505222502 | 65 | 188 | 0.9 | 11.3 | 0.00 | 0.11 | 0.11 | 35 | 1018.8 |
| 20260505222002 | 65 | 309 | 1.7 | 24.3 | 0.00 | 0.11 | 0.11 | 36 | 1018.7 |
| 20260505221506 | 65 | 173 | 6.1 | 24.3 | 0.00 | 0.11 | 0.11 | 35 | 1018.9 |
| 20260505221002 | 66 | 190 | 4.3 | 15.6 | 0.00 | 0.11 | 0.11 | 35 | 1018.9 |
| 20260505220004 | 67 | 162 | 6.1 | 10.4 | 0.00 | 0.11 | 0.11 | 36 | 1019.0 |
| 20260505215502 | 66 | 113 | 3.5 | 13.0 | 0.00 | 0.11 | 0.11 | 36 | 1019.0 |
| 20260505215002 | 67 | 165 | 1.7 | 13.0 | 0.00 | 0.11 | 0.11 | 34 | 1019.0 |
| 20260505214503 | 67 | 212 | 1.7 | 7.8 | 0.00 | 0.11 | 0.11 | 37 | 1019.1 |
| 20260505214003 | 67 | 169 | 4.3 | 12.2 | 0.00 | 0.11 | 0.11 | 35 | 1019.1 |
| 20260505213502 | 67 | 227 | 6.1 | 13.9 | 0.00 | 0.11 | 0.11 | 36 | 1019.4 |
| 20260505213002 | 67 | 252 | 6.1 | 18.2 | 0.00 | 0.11 | 0.11 | 37 | 1019.6 |
| 20260505212502 | 64 | 212 | 12.2 | 18.2 | 0.00 | 0.11 | 0.11 | 38 | 1019.7 |
| 20260505212002 | 64 | 243 | 10.4 | 13.9 | 0.00 | 0.11 | 0.11 | 41 | 1019.6 |
| 20260505211001 | 66 | 207 | 9.6 | 10.4 | 0.00 | 0.11 | 0.11 | 40 | 1019.7 |
| 20260505210005 | 65 | 229 | 10.4 | 13.9 | 0.00 | 0.11 | 0.11 | 40 | 1019.9 |
| 20260505205502 | 67 | 243 | 5.2 | 13.0 | 0.00 | 0.11 | 0.11 | 38 | 1020.1 |
| 20260505205002 | 66 | 265 | 8.7 | 13.0 | 0.00 | 0.11 | 0.11 | 40 | 1020.2 |
| 20260505204002 | 66 | 215 | 8.7 | 18.2 | 0.00 | 0.11 | 0.11 | 41 | 1020.1 |
| 20260505203502 | 65 | 227 | 6.1 | 18.2 | 0.00 | 0.11 | 0.11 | 41 | 1020.2 |
| 20260505203003 | 65 | 225 | 6.1 | 16.5 | 0.00 | 0.11 | 0.11 | 41 | 1020.3 |
| 20260505202501 | 66 | 198 | 8.7 | 19.1 | 0.00 | 0.11 | 0.11 | 40 | 1020.3 |
| 20260505202014 | 67 | 196 | 7.8 | 19.1 | 0.00 | 0.11 | 0.11 | 40 | 1020.4 |
| 20260505201510 | 66 | 321 | 6.1 | 17.4 | 0.00 | 0.11 | 0.11 | 41 | 1020.3 |
| 20260505200502 | 65 | 197 | 12.2 | 20.0 | 0.00 | 0.11 | 0.11 | 42 | 1020.6 |
| 20260505200004 | 64 | 217 | 4.3 | 20.0 | 0.00 | 0.11 | 0.11 | 41 | 1020.5 |
| 20260505195502 | 65 | 232 | 5.2 | 17.4 | 0.00 | 0.11 | 0.11 | 42 | 1020.7 |
| 20260505195000 | 65 | 187 | 13.9 | 17.4 | 0.00 | 0.11 | 0.11 | 44 | 1020.6 |
| 20260505194002 | 65 | 292 | 5.2 | 25.2 | 0.00 | 0.11 | 0.11 | 43 | 1020.7 |
| 20260505193501 | 64 | 150 | 7.8 | 25.2 | 0.00 | 0.11 | 0.11 | 47 | 1020.8 |
| 20260505193001 | 63 | 190 | 7.0 | 18.2 | 0.00 | 0.11 | 0.11 | 47 | 1020.8 |
| 20260505192002 | 63 | 189 | 11.3 | 22.6 | 0.00 | 0.11 | 0.11 | 47 | 1020.9 |
| 20260505191001 | 63 | 200 | 7.8 | 15.6 | 0.00 | 0.11 | 0.11 | 49 | 1021.1 |
| 20260505190502 | 64 | 237 | 6.1 | 22.6 | 0.00 | 0.11 | 0.11 | 47 | 1021.1 |
| 20260505190004 | 63 | 211 | 7.0 | 22.6 | 0.00 | 0.11 | 0.11 | 47 | 1021.2 |
| 20260505185501 | 63 | 257 | 9.6 | 20.0 | 0.00 | 0.11 | 0.11 | 46 | 1021.2 |
| 20260505184001 | 62 | 270 | 6.1 | 16.5 | 0.00 | 0.11 | 0.11 | 51 | 1021.5 |
| 20260505183501 | 61 | 221 | 4.3 | 15.6 | 0.00 | 0.11 | 0.11 | 51 | 1021.6 |
| 20260505183002 | 61 | 205 | 7.8 | 13.9 | 0.00 | 0.11 | 0.11 | 52 | 1021.3 |
| 20260505182502 | 61 | 219 | 13.0 | 17.4 | 0.00 | 0.11 | 0.11 | 51 | 1021.5 |
| 20260505182002 | 61 | 242 | 5.2 | 18.2 | 0.00 | 0.11 | 0.11 | 51 | 1021.6 |
| 20260505181502 | 62 | 236 | 7.8 | 18.2 | 0.00 | 0.11 | 0.11 | 51 | 1021.4 |
| 20260505181002 | 61 | 254 | 11.3 | 19.1 | 0.00 | 0.11 | 0.11 | 52 | 1021.5 |
| 20260505180502 | 61 | 253 | 9.6 | 16.5 | 0.00 | 0.11 | 0.11 | 53 | 1021.6 |
| 20260505180004 | 61 | 205 | 4.3 | 17.4 | 0.00 | 0.11 | 0.11 | 53 | 1021.6 |
| 20260505175002 | 61 | 215 | 3.5 | 16.5 | 0.00 | 0.11 | 0.11 | 54 | 1021.6 |
| 20260505174501 | 61 | 223 | 7.8 | 21.7 | 0.00 | 0.11 | 0.11 | 53 | 1021.6 |
| 20260505174002 | 61 | 195 | 7.0 | 21.7 | 0.00 | 0.11 | 0.11 | 53 | 1021.8 |
| 20260505173503 | 61 | 236 | 5.2 | 21.7 | 0.00 | 0.11 | 0.11 | 56 | 1021.6 |
| 20260505173002 | 61 | 193 | 7.8 | 21.7 | 0.00 | 0.11 | 0.11 | 56 | 1021.6 |
| 20260505172502 | 61 | 248 | 13.9 | 18.2 | 0.00 | 0.11 | 0.11 | 58 | 1021.6 |
| 20260505172002 | 60 | 210 | 13.0 | 18.2 | 0.00 | 0.11 | 0.11 | 57 | 1021.5 |
| 20260505171501 | 61 | 248 | 7.0 | 15.6 | 0.00 | 0.11 | 0.11 | 56 | 1021.7 |
| 20260505170501 | 60 | 90 | 3.5 | 13.9 | 0.00 | 0.11 | 0.11 | 58 | 1021.5 |
| 20260505170005 | 59 | 248 | 7.8 | 19.1 | 0.00 | 0.11 | 0.11 | 58 | 1021.5 |
| 20260505165502 | 59 | 245 | 3.5 | 19.1 | 0.00 | 0.11 | 0.11 | 62 | 1021.3 |
| 20260505164501 | 59 | 199 | 4.3 | 20.0 | 0.00 | 0.11 | 0.11 | 62 | 1021.6 |
| 20260505164002 | 58 | 319 | 5.2 | 20.0 | 0.00 | 0.11 | 0.11 | 61 | 1021.7 |
| 20260505163507 | 58 | 159 | 5.2 | 19.1 | 0.00 | 0.11 | 0.11 | 62 | 1021.6 |
| 20260505163003 | 57 | 227 | 16.5 | 19.1 | 0.01 | 0.11 | 0.11 | 62 | 1021.6 |
| 20260505162501 | 57 | 224 | 15.6 | 15.6 | 0.01 | 0.11 | 0.11 | 63 | 1021.8 |
| 20260505162002 | 57 | 227 | 9.6 | 18.2 | 0.01 | 0.11 | 0.11 | 65 | 1021.4 |
| 20260505160501 | 55 | 277 | 6.1 | 11.3 | 0.01 | 0.11 | 0.11 | 69 | 1021.4 |
| 20260505153002 | 53 | 264 | 4.3 | 13.0 | 0.03 | 0.10 | 0.10 | 77 | 1021.2 |
| 20260505152502 | 53 | 213 | 5.2 | 12.2 | 0.03 | 0.10 | 0.10 | 74 | 1021.0 |
| 20260505152001 | 54 | 190 | 6.1 | 11.3 | 0.03 | 0.10 | 0.10 | 74 | 1020.9 |
| 20260505151503 | 53 | 245 | 6.1 | 12.2 | 0.04 | 0.10 | 0.10 | 74 | 1020.9 |
| 20260505151000 | 53 | 221 | 7.0 | 10.4 | 0.05 | 0.10 | 0.10 | 78 | 1020.9 |
| 20260505150501 | 53 | 261 | 3.5 | 10.4 | 0.06 | 0.10 | 0.10 | 78 | 1020.8 |
| 20260505140501 | 52 | 209 | 2.6 | 9.6 | 0.04 | 0.04 | 0.04 | 76 | 1020.6 |
| 20260505125001 | 50 | 273 | 0.0 | 3.5 | 0.00 | 0.00 | 0.00 | 83 | 1020.6 |
| 20260505124501 | 50 | 340 | 0.0 | 3.5 | 0.00 | 0.00 | 0.00 | 82 | 1020.7 |
| 20260505124001 | 50 | 323 | 0.0 | 3.5 | 0.00 | 0.00 | 0.00 | 80 | 1020.6 |
| 20260505123501 | 50 | 5 | 0.9 | 3.5 | 0.00 | 0.00 | 0.00 | 77 | 1020.5 |
| 20260505123000 | 51 | 5 | 1.7 | 6.1 | 0.00 | 0.00 | 0.00 | 74 | 1020.5 |
| 20260505122000 | 54 | 105 | 3.5 | 9.6 | 0.00 | 0.00 | 0.00 | 65 | 1020.8 |
| 20260505121500 | 54 | 88 | 8.7 | 9.6 | 0.00 | 0.00 | 0.00 | 61 | 1020.5 |
| 20260505121001 | 55 | 67 | 1.7 | 7.8 | 0.00 | 0.00 | 0.00 | 56 | 1020.3 |
| 20260505120501 | 55 | 125 | 1.7 | 5.2 | 0.00 | 0.00 | 0.00 | 52 | 1020.2 |
| 20260505115501 | 55 | 211 | 4.3 | 7.8 | 0.00 | 0.00 | 0.00 | 51 | 1020.2 |
| 20260505115001 | 54 | 205 | 2.6 | 8.7 | 0.00 | 0.00 | 0.00 | 53 | 1020.2 |
| 20260505114500 | 54 | 277 | 6.1 | 9.6 | 0.00 | 0.00 | 0.00 | 56 | 1020.2 |
| 20260505114001 | 54 | 267 | 4.3 | 13.0 | 0.00 | 0.00 | 0.00 | 59 | 1020.1 |
| 20260505113000 | 54 | 254 | 3.5 | 9.6 | 0.00 | 0.00 | 0.00 | 60 | 1020.9 |
| 20260505112001 | 54 | 258 | 3.5 | 11.3 | 0.00 | 0.00 | 0.00 | 59 | 1021.1 |
| 20260505111500 | 54 | 273 | 7.8 | 9.6 | 0.00 | 0.00 | 0.00 | 59 | 1021.4 |
| 20260505111001 | 54 | 284 | 5.2 | 9.6 | 0.00 | 0.00 | 0.00 | 61 | 1021.4 |
| 20260505110501 | 54 | 236 | 4.3 | 11.3 | 0.00 | 0.00 | 0.00 | 62 | 1021.4 |
| 20260505101001 | 54 | 252 | 13.9 | 13.9 | 0.00 | 0.00 | 0.00 | 62 | 1021.2 |
| 20260505100459 | 54 | 30 | 7.0 | 11.3 | 0.00 | 0.00 | 0.00 | 62 | 1021.4 |
| 20260505100003 | 54 | 297 | 6.1 | 12.2 | 0.00 | 0.00 | 0.00 | 61 | 1021.4 |
| 20260505095501 | 54 | 331 | 1.7 | 12.2 | 0.00 | 0.00 | 0.00 | 61 | 1021.5 |
| 20260505095001 | 54 | 243 | 0.9 | 11.3 | 0.00 | 0.00 | 0.00 | 60 | 1021.4 |
| 20260505094501 | 54 | 298 | 3.5 | 11.3 | 0.00 | 0.00 | 0.00 | 60 | 1021.4 |
| 20260505093959 | 55 | 334 | 3.5 | 11.3 | 0.00 | 0.00 | 0.00 | 58 | 1021.6 |
| 20260505093500 | 55 | 316 | 0.9 | 13.9 | 0.00 | 0.00 | 0.00 | 56 | 1021.6 |
| 20260505093000 | 55 | 242 | 6.1 | 13.9 | 0.00 | 0.00 | 0.00 | 58 | 1021.5 |
| 20260505092500 | 54 | 279 | 8.7 | 13.0 | 0.00 | 0.00 | 0.00 | 59 | 1021.5 |
| 20260505091001 | 55 | 297 | 3.5 | 12.2 | 0.00 | 0.00 | 0.00 | 60 | 1021.9 |
| 20260505090501 | 55 | 302 | 6.1 | 12.2 | 0.00 | 0.00 | 0.00 | 59 | 1021.6 |
| 20260505090003 | 55 | 24 | 4.3 | 18.2 | 0.00 | 0.00 | 0.00 | 57 | 1021.8 |
| 20260505085500 | 56 | 242 | 3.5 | 18.2 | 0.00 | 0.00 | 0.00 | 53 | 1022.3 |
| 20260505084959 | 56 | 235 | 10.4 | 12.2 | 0.00 | 0.00 | 0.00 | 52 | 1022.3 |
| 20260505084501 | 56 | 150 | 3.5 | 18.2 | 0.00 | 0.00 | 0.00 | 52 | 1021.9 |
| 20260505084000 | 55 | 253 | 5.2 | 18.2 | 0.00 | 0.00 | 0.00 | 53 | 1021.6 |
| 20260505083500 | 55 | 315 | 5.2 | 17.4 | 0.00 | 0.00 | 0.00 | 53 | 1021.6 |
| 20260505083000 | 55 | 304 | 4.3 | 17.4 | 0.00 | 0.00 | 0.00 | 53 | 1021.9 |
| 20260505082500 | 56 | 337 | 3.5 | 11.3 | 0.00 | 0.00 | 0.00 | 53 | 1021.9 |
| 20260505082000 | 56 | 255 | 3.5 | 11.3 | 0.00 | 0.00 | 0.00 | 52 | 1022.2 |
| 20260505081459 | 56 | 284 | 6.1 | 13.9 | 0.00 | 0.00 | 0.00 | 52 | 1022.2 |
| 20260505081001 | 56 | 282 | 7.8 | 13.9 | 0.00 | 0.00 | 0.00 | 52 | 1022.1 |
| 20260505080500 | 56 | 332 | 4.3 | 13.9 | 0.00 | 0.00 | 0.00 | 52 | 1022.2 |
| 20260505075500 | 56 | 285 | 8.7 | 13.9 | 0.00 | 0.00 | 0.00 | 50 | 1022.1 |
| 20260505075000 | 56 | 290 | 8.7 | 13.0 | 0.00 | 0.00 | 0.00 | 49 | 1022.0 |
| 20260505074501 | 56 | 340 | 2.6 | 13.9 | 0.00 | 0.00 | 0.00 | 48 | 1022.3 |
| 20260505074000 | 56 | 268 | 9.6 | 13.9 | 0.00 | 0.00 | 0.00 | 47 | 1022.3 |
| 20260505073500 | 56 | 338 | 6.1 | 13.9 | 0.00 | 0.00 | 0.00 | 47 | 1022.2 |
| 20260505073001 | 57 | 241 | 6.1 | 13.0 | 0.00 | 0.00 | 0.00 | 46 | 1022.6 |
| 20260505072501 | 57 | 188 | 6.1 | 17.4 | 0.00 | 0.00 | 0.00 | 45 | 1022.4 |
| 20260505072000 | 57 | 317 | 9.6 | 13.0 | 0.00 | 0.00 | 0.00 | 45 | 1022.3 |
| 20260505071500 | 57 | 216 | 5.2 | 11.3 | 0.00 | 0.00 | 0.00 | 43 | 1022.2 |
| 20260505071000 | 57 | 283 | 3.5 | 13.0 | 0.00 | 0.00 | 0.00 | 43 | 1022.3 |
| 20260505070500 | 57 | 223 | 5.2 | 13.9 | 0.00 | 0.00 | 0.00 | 41 | 1022.5 |
| 20260505070007 | 57 | 298 | 6.1 | 18.2 | 0.00 | 0.00 | 0.00 | 40 | 1022.5 |
| 20260505065502 | 57 | 281 | 13.0 | 18.2 | 0.00 | 0.00 | 0.00 | 40 | 1022.5 |
| 20260505065003 | 57 | 212 | 0.9 | 13.9 | 0.00 | 0.00 | 0.00 | 40 | 1022.5 |
| 20260505064503 | 57 | 310 | 13.0 | 20.0 | 0.00 | 0.00 | 0.00 | 40 | 1022.6 |
| 20260505063002 | 57 | 314 | 6.1 | 18.2 | 0.00 | 0.00 | 0.00 | 42 | 1022.5 |
| 20260505062502 | 57 | 271 | 5.2 | 18.2 | 0.00 | 0.00 | 0.00 | 41 | 1022.5 |
| 20260505062003 | 57 | 262 | 5.2 | 18.2 | 0.00 | 0.00 | 0.00 | 42 | 1022.8 |
| 20260505061504 | 57 | 186 | 18.2 | 18.2 | 0.00 | 0.00 | 0.00 | 41 | 1022.7 |
| 20260505061003 | 57 | 147 | 4.3 | 13.0 | 0.00 | 0.00 | 0.00 | 42 | 1022.4 |
| 20260505060002 | 57 | 227 | 4.3 | 12.2 | 0.00 | 0.00 | 0.00 | 42 | 1022.8 |
| 20260505055003 | 57 | 261 | 4.3 | 12.2 | 0.00 | 0.00 | 0.00 | 43 | 1022.9 |
| 20260505054502 | 56 | 273 | 2.6 | 10.4 | 0.00 | 0.00 | 0.00 | 45 | 1023.1 |
| 20260505054003 | 56 | 331 | 1.7 | 2.6 | 0.00 | 0.00 | 0.00 | 46 | 1023.2 |
| 20260505053503 | 56 | 122 | 0.0 | 6.1 | 0.00 | 0.00 | 0.00 | 45 | 1023.2 |
| 20260505052503 | 56 | 130 | 0.0 | 3.5 | 0.00 | 0.00 | 0.00 | 48 | 1023.0 |
| 20260505052002 | 56 | 355 | 0.0 | 7.0 | 0.00 | 0.00 | 0.00 | 47 | 1023.1 |
| 20260505051504 | 56 | 355 | 0.0 | 7.0 | 0.00 | 0.00 | 0.00 | 47 | 1023.4 |
| 20260505051002 | 56 | 343 | 1.7 | 6.1 | 0.00 | 0.00 | 0.00 | 48 | 1023.5 |
| 20260505050503 | 56 | 40 | 3.5 | 5.2 | 0.00 | 0.00 | 0.00 | 48 | 1023.7 |
| 20260505041503 | 58 | 302 | 4.3 | 8.7 | 0.00 | 0.00 | 0.00 | 40 | 1024.0 |
| 20260505041003 | 58 | 333 | 0.9 | 8.7 | 0.00 | 0.00 | 0.00 | 40 | 1023.9 |
| 20260505040503 | 58 | 331 | 1.7 | 7.8 | 0.00 | 0.00 | 0.00 | 39 | 1023.7 |
| 20260505040004 | 58 | 329 | 1.7 | 9.6 | 0.00 | 0.00 | 0.00 | 39 | 1023.5 |
| 20260505035503 | 58 | 360 | 2.6 | 9.6 | 0.00 | 0.00 | 0.00 | 38 | 1023.5 |
| 20260505034502 | 59 | 276 | 2.6 | 10.4 | 0.00 | 0.00 | 0.00 | 38 | 1023.5 |
| 20260505034003 | 59 | 51 | 1.7 | 8.7 | 0.00 | 0.00 | 0.00 | 38 | 1023.4 |
| 20260505033502 | 59 | 282 | 4.3 | 8.7 | 0.00 | 0.00 | 0.00 | 38 | 1023.5 |
| 20260505033002 | 59 | 277 | 0.9 | 6.1 | 0.00 | 0.00 | 0.00 | 38 | 1023.4 |
| 20260505032502 | 59 | 287 | 1.7 | 6.1 | 0.00 | 0.00 | 0.00 | 38 | 1023.4 |
| 20260505032003 | 59 | 310 | 3.5 | 7.0 | 0.00 | 0.00 | 0.00 | 38 | 1023.2 |
| 20260505031503 | 59 | 295 | 3.5 | 7.0 | 0.00 | 0.00 | 0.00 | 37 | 1023.2 |
| 20260505031003 | 59 | 211 | 0.0 | 7.0 | 0.00 | 0.00 | 0.00 | 37 | 1023.1 |
| 20260505030502 | 59 | 280 | 7.0 | 7.8 | 0.00 | 0.00 | 0.00 | 37 | 1023.1 |
| 20260505030005 | 60 | 313 | 1.7 | 8.7 | 0.00 | 0.00 | 0.00 | 36 | 1022.9 |
| 20260505025002 | 60 | 34 | 3.5 | 7.8 | 0.00 | 0.00 | 0.00 | 36 | 1022.8 |
| 20260505024502 | 61 | 260 | 0.9 | 11.3 | 0.00 | 0.00 | 0.00 | 35 | 1022.7 |
| 20260505024003 | 61 | 234 | 1.7 | 11.3 | 0.00 | 0.00 | 0.00 | 35 | 1022.7 |
| 20260505022002 | 62 | 291 | 0.0 | 6.1 | 0.00 | 0.00 | 0.00 | 36 | 1022.7 |
| 20260505021502 | 62 | 294 | 0.9 | 6.1 | 0.00 | 0.00 | 0.00 | 36 | 1022.6 |
| 20260505021002 | 62 | 330 | 1.7 | 5.2 | 0.00 | 0.00 | 0.00 | 36 | 1022.5 |
| 20260505020502 | 62 | 322 | 4.3 | 5.2 | 0.00 | 0.00 | 0.00 | 36 | 1022.3 |
| 20260505020006 | 63 | 5 | 1.7 | 4.3 | 0.00 | 0.00 | 0.00 | 35 | 1022.3 |
| 20260505015502 | 63 | 333 | 0.0 | 8.7 | 0.00 | 0.00 | 0.00 | 34 | 1022.3 |
| 20260505015002 | 64 | 323 | 3.5 | 8.7 | 0.00 | 0.00 | 0.00 | 34 | 1022.1 |
| 20260505014001 | 64 | 282 | 3.5 | 8.7 | 0.00 | 0.00 | 0.00 | 32 | 1022.4 |
| 20260505013501 | 64 | 299 | 6.1 | 7.8 | 0.00 | 0.00 | 0.00 | 33 | 1022.3 |
| 20260505013002 | 65 | 304 | 1.7 | 7.8 | 0.00 | 0.00 | 0.00 | 32 | 1022.3 |
| 20260505012501 | 65 | 5 | 0.9 | 8.7 | 0.00 | 0.00 | 0.00 | 33 | 1022.5 |
| 20260505012002 | 65 | 296 | 2.6 | 8.7 | 0.00 | 0.00 | 0.00 | 32 | 1022.4 |
| 20260505011501 | 65 | 339 | 6.1 | 7.8 | 0.00 | 0.00 | 0.00 | 32 | 1022.5 |
| 20260505011001 | 65 | 249 | 0.9 | 7.8 | 0.00 | 0.00 | 0.00 | 31 | 1022.5 |
| 20260505010501 | 66 | 241 | 4.3 | 11.3 | 0.00 | 0.00 | 0.00 | 31 | 1022.5 |
| 20260505005503 | 66 | 258 | 6.1 | 11.3 | 0.00 | 0.00 | 0.00 | 29 | 1022.4 |
| 20260505005001 | 66 | 28 | 8.7 | 15.6 | 0.00 | 0.00 | 0.00 | 28 | 1022.5 |
| 20260505004501 | 67 | 284 | 3.5 | 15.6 | 0.00 | 0.00 | 0.00 | 27 | 1022.5 |
| 20260505004002 | 68 | 316 | 1.7 | 11.3 | 0.00 | 0.00 | 0.00 | 26 | 1022.3 |
| 20260505002503 | 69 | 269 | 6.1 | 9.6 | 0.00 | 0.00 | 0.00 | 23 | 1022.3 |
| 20260505001001 | 69 | 293 | 3.5 | 11.3 | 0.00 | 0.00 | 0.00 | 24 | 1022.3 |
| 20260505000501 | 70 | 360 | 4.3 | 13.0 | 0.00 | 0.00 | 0.00 | 24 | 1022.3 |
| 20260505000005 | 70 | 340 | 6.1 | 13.0 | 0.00 | 0.00 | 0.00 | 23 | 1022.5 |
| 20260504235501 | 70 | 303 | 4.3 | 10.4 | 0.00 | 0.00 | 0.00 | 22 | 1022.3 |
| 20260504235001 | 71 | 313 | 3.5 | 10.4 | 0.00 | 0.00 | 0.00 | 21 | 1022.1 |
| 20260504234502 | 71 | 342 | 6.1 | 10.4 | 0.00 | 0.00 | 0.00 | 21 | 1022.0 |
| 20260504234002 | 71 | 276 | 2.6 | 13.9 | 0.00 | 0.00 | 0.00 | 21 | 1022.0 |
| 20260504233502 | 71 | 338 | 3.5 | 13.9 | 0.00 | 0.00 | 0.00 | 20 | 1022.0 |
| 20260504233002 | 72 | 292 | 8.7 | 9.6 | 0.00 | 0.00 | 0.00 | 20 | 1021.8 |
| 20260504232501 | 71 | 265 | 7.8 | 9.6 | 0.00 | 0.00 | 0.00 | 20 | 1021.7 |
| 20260504232002 | 72 | 330 | 9.6 | 9.6 | 0.00 | 0.00 | 0.00 | 20 | 1021.6 |
| 20260504231501 | 72 | 61 | 3.5 | 10.4 | 0.00 | 0.00 | 0.00 | 19 | 1021.6 |
| 20260504231002 | 72 | 286 | 4.3 | 13.0 | 0.00 | 0.00 | 0.00 | 19 | 1021.6 |
| 20260504230501 | 72 | 299 | 6.1 | 13.0 | 0.00 | 0.00 | 0.00 | 19 | 1021.8 |
| 20260504230005 | 72 | 274 | 7.8 | 19.1 | 0.00 | 0.00 | 0.00 | 19 | 1021.9 |
| 20260504225002 | 73 | 331 | 7.8 | 17.4 | 0.00 | 0.00 | 0.00 | 19 | 1022.1 |